CheckWX is a tool to help pilots better visualize weather data.  It is not intended as a substitute for an official pre-flight weather briefing.

18:01:14 UTC

FKKR METAR
Garoua International Airport
Garoua, Cameroon
Current

1 hour ago

FKKR 241700Z 26010KT 6000 NSC 38/03 Q1005 NOSIG
Observed
Mar-24 @ 17:00 UTC
Wind
  • 260° at 10 KTS
Visibility
6,003 meters
Flight Rules
MVFR
Cloud Levels
  • Clear skies
Temperature
38°C / 100°F
Dewpoint
C / 37°F
Humidity
11%
Altimeter
29.68" Hg
Pressure
1004.92 hPa
Previous

2 hours ago

FKKR 241600Z 26011KT 9999 FEW030 41/03 Q1004 NOSIG
Observed
Mar-24 @ 16:00 UTC
Wind
  • 260° at 11 KTS
Visibility
10,000+ meters
Flight Rules
VFR
Cloud Levels
  • Few at 3,000' AGL
Temperature
41°C / 106°F
Dewpoint
C / 37°F
Humidity
9%
Altimeter
29.65" Hg
Pressure
1003.92 hPa
Previous

3 hours ago

FKKR 241500Z 21005KT CAVOK 40/00 Q1004 NOSIG
Observed
Mar-24 @ 15:00 UTC
Wind
  • 210° at 5 KTS
Visibility
10,000+ meters
Flight Rules
VFR
Cloud Levels
  • Clear skies
Temperature
40°C / 104°F
Dewpoint
C / 32°F
Humidity
8%
Altimeter
29.65" Hg
Pressure
1003.92 hPa